createdAt,value
2019-02-04T00:00:30.933Z,1.50
2019-02-04T00:03:02.024Z,1.50
2019-02-04T00:05:33.736Z,1.50
2019-02-04T00:08:04.375Z,1.50
2019-02-04T00:10:35.113Z,1.60
2019-02-04T00:13:06.670Z,1.50
2019-02-04T00:15:37.497Z,1.40
2019-02-04T00:18:08.314Z,1.40
2019-02-04T00:20:39.037Z,1.30
2019-02-04T00:23:09.752Z,1.10
2019-02-04T00:25:40.845Z,1.20
2019-02-04T00:28:11.559Z,1.20
2019-02-04T00:30:42.339Z,1.10
2019-02-04T00:33:13.077Z,1.10
2019-02-04T00:35:43.831Z,1.10
2019-02-04T00:38:14.860Z,1.10
2019-02-04T00:40:45.597Z,1.00
2019-02-04T00:43:16.445Z,1.00
2019-02-04T00:45:47.189Z,1.00
2019-02-04T00:48:17.949Z,1.00
2019-02-04T00:50:49.126Z,1.00
2019-02-04T00:53:19.923Z,1.00
2019-02-04T00:55:50.741Z,1.00
2019-02-04T00:58:21.865Z,0.80
2019-02-04T01:00:52.626Z,0.80
2019-02-04T01:03:23.359Z,0.80
2019-02-04T01:05:54.127Z,0.80
2019-02-04T01:08:24.887Z,0.80
2019-02-04T01:10:55.646Z,0.80
2019-02-04T01:13:26.405Z,0.80
2019-02-04T01:15:57.193Z,0.80
2019-02-04T01:18:27.921Z,0.80
2019-02-04T01:20:58.653Z,0.80
2019-02-04T01:23:29.283Z,0.80
2019-02-04T01:26:00.017Z,0.80
2019-02-04T01:28:30.734Z,0.80
2019-02-04T01:31:01.465Z,0.80
2019-02-04T01:33:32.187Z,0.80
2019-02-04T01:36:02.918Z,0.80
2019-02-04T01:38:33.711Z,0.80
2019-02-04T01:41:04.471Z,0.80
2019-02-04T01:43:35.174Z,0.80
2019-02-04T01:46:05.909Z,0.90
2019-02-04T01:48:36.595Z,0.90
2019-02-04T01:51:07.323Z,0.90
2019-02-04T01:53:38.020Z,0.90
2019-02-04T01:56:08.856Z,0.90
2019-02-04T01:58:39.631Z,0.90
2019-02-04T02:01:10.304Z,0.90
2019-02-04T02:03:41.018Z,0.90
2019-02-04T02:06:11.777Z,0.90
2019-02-04T02:08:42.610Z,0.90
2019-02-04T02:11:13.360Z,0.90
2019-02-04T02:13:44.009Z,0.90
2019-02-04T02:16:14.730Z,0.90
2019-02-04T02:18:45.453Z,0.90
2019-02-04T02:21:16.499Z,0.80
2019-02-04T02:23:48.378Z,0.90
2019-02-04T02:26:19.102Z,0.80
2019-02-04T02:28:49.802Z,0.80
2019-02-04T02:31:20.526Z,0.80
2019-02-04T02:33:51.531Z,0.70
2019-02-04T02:36:22.285Z,0.80
2019-02-04T02:38:52.990Z,0.80
2019-02-04T02:41:23.728Z,0.70
2019-02-04T02:43:54.420Z,0.70
2019-02-04T02:46:25.152Z,0.70
2019-02-04T02:48:55.872Z,0.60
2019-02-04T02:51:26.597Z,0.70
2019-02-04T02:53:57.289Z,0.60
2019-02-04T02:56:28.010Z,0.60
2019-02-04T02:58:58.625Z,0.60
2019-02-04T03:01:29.277Z,0.60
2019-02-04T03:03:59.993Z,0.50
2019-02-04T03:06:30.722Z,0.50
2019-02-04T03:09:01.421Z,0.40
2019-02-04T03:11:33.770Z,0.40
2019-02-04T03:14:04.475Z,0.30
2019-02-04T03:16:35.189Z,0.30
2019-02-04T03:19:06.862Z,0.40
2019-02-04T03:21:37.581Z,0.30
2019-02-04T03:24:08.290Z,0.30
2019-02-04T03:26:39.041Z,0.40
2019-02-04T03:29:09.746Z,0.30
2019-02-04T03:31:45.774Z,0.40
2019-02-04T03:34:13.059Z,0.30
2019-02-04T03:36:43.859Z,0.40
2019-02-04T03:39:14.581Z,0.40
2019-02-04T03:41:45.305Z,0.40
2019-02-04T03:44:15.996Z,0.30
2019-02-04T03:46:46.744Z,0.30
2019-02-04T03:49:17.441Z,0.10
2019-02-04T03:51:48.359Z,0.10
2019-02-04T03:54:19.001Z,0.00
2019-02-04T03:56:49.738Z,0.00
2019-02-04T03:59:20.441Z,0.00
2019-02-04T04:01:51.489Z,0.00
2019-02-04T04:04:22.393Z,-0.20
2019-02-04T04:06:53.126Z,-0.20
2019-02-04T04:09:23.832Z,-0.20
2019-02-04T04:11:54.513Z,-0.30
2019-02-04T04:14:26.191Z,-0.30
2019-02-04T04:16:57.233Z,-0.30
2019-02-04T04:19:27.945Z,-0.30
2019-02-04T04:21:58.679Z,-0.30
2019-02-04T04:24:29.389Z,-0.30
2019-02-04T04:27:00.121Z,-0.30
2019-02-04T04:29:31.234Z,-0.40
2019-02-04T04:32:01.981Z,-0.40
2019-02-04T04:34:32.694Z,-0.50
2019-02-04T04:37:03.437Z,-0.50
2019-02-04T04:39:34.178Z,-0.50
2019-02-04T04:44:35.214Z,-0.60
2019-02-04T04:47:05.965Z,-0.60
2019-02-04T04:49:36.707Z,-0.70
2019-02-04T04:52:08.497Z,-0.70
2019-02-04T04:54:39.141Z,-0.60
2019-02-04T04:57:09.841Z,-0.60
2019-02-04T04:59:40.569Z,-0.70
2019-02-04T05:02:11.216Z,-0.80
2019-02-04T05:04:41.948Z,-0.80
2019-02-04T05:07:12.657Z,-0.90
2019-02-04T05:09:43.410Z,-0.90
2019-02-04T05:12:14.144Z,-0.90
2019-02-04T05:14:44.882Z,-0.90
2019-02-04T05:17:15.517Z,-0.90
2019-02-04T05:19:46.266Z,-0.90
2019-02-04T05:22:17.174Z,-0.90
2019-02-04T05:24:47.900Z,-1.00
2019-02-04T05:27:18.597Z,-1.00
2019-02-04T05:29:49.278Z,-1.00
2019-02-04T05:32:19.914Z,-1.10
2019-02-04T05:34:50.845Z,-1.10
2019-02-04T05:37:21.581Z,-1.20
2019-02-04T05:39:52.238Z,-1.20
2019-02-04T05:42:22.988Z,-1.20
2019-02-04T05:44:53.696Z,-1.20
2019-02-04T05:47:24.708Z,-1.30
2019-02-04T05:49:55.373Z,-1.20
2019-02-04T05:52:26.081Z,-1.20
2019-02-04T05:54:56.753Z,-1.20
2019-02-04T05:57:27.459Z,-1.40
2019-02-04T05:59:58.509Z,-1.30
2019-02-04T06:02:29.251Z,-1.30
2019-02-04T06:04:59.976Z,-1.30
2019-02-04T06:07:30.692Z,-1.20
2019-02-04T06:10:01.445Z,-1.20
2019-02-04T06:12:34.882Z,-1.20
2019-02-04T06:15:05.845Z,-1.30
2019-02-04T06:17:36.558Z,-1.30
2019-02-04T06:20:09.510Z,-1.30
2019-02-04T06:22:41.120Z,-1.30
2019-02-04T06:25:12.165Z,-1.30
2019-02-04T06:27:42.872Z,-1.40
2019-02-04T06:30:13.941Z,-1.40
2019-02-04T06:32:44.663Z,-1.50
2019-02-04T06:35:16.097Z,-1.60
2019-02-04T06:37:47.347Z,-1.60
2019-02-04T06:40:18.386Z,-1.50
2019-02-04T06:42:49.090Z,-1.60
2019-02-04T06:45:19.925Z,-1.70
2019-02-04T06:47:50.642Z,-1.70
2019-02-04T06:50:21.416Z,-1.80
2019-02-04T06:52:52.136Z,-1.90
2019-02-04T06:55:28.350Z,-1.80
2019-02-04T06:57:58.994Z,-1.80
2019-02-04T07:00:29.720Z,-1.80
2019-02-04T07:03:00.752Z,-1.70
2019-02-04T07:05:43.077Z,-1.70
2019-02-04T07:08:03.833Z,-1.70
2019-02-04T07:10:34.494Z,-1.70
2019-02-04T07:13:05.256Z,-1.80
2019-02-04T07:15:35.922Z,-1.70
2019-02-04T07:18:06.544Z,-1.70
2019-02-04T07:20:37.279Z,-1.70
2019-02-04T07:23:07.986Z,-1.70
2019-02-04T07:25:38.740Z,-1.60
2019-02-04T07:28:09.453Z,-1.60
2019-02-04T07:30:40.190Z,-1.60
2019-02-04T07:33:10.906Z,-1.60
2019-02-04T07:35:41.670Z,-1.60
2019-02-04T07:38:12.409Z,-1.50
2019-02-04T07:40:43.145Z,-1.40
2019-02-04T07:43:14.279Z,-1.30
2019-02-04T07:45:45.017Z,-1.60
2019-02-04T07:48:15.745Z,-1.20
2019-02-04T07:50:46.486Z,-0.80
2019-02-04T07:53:17.213Z,-0.80
2019-02-04T07:55:47.877Z,-0.60
2019-02-04T07:58:18.594Z,-0.60
2019-02-04T08:00:49.261Z,-0.40
2019-02-04T08:03:19.991Z,-0.20
2019-02-04T08:05:50.708Z,0.20
2019-02-04T08:08:21.426Z,0.50
2019-02-04T08:10:52.117Z,1.20
2019-02-04T08:13:22.869Z,1.30
2019-02-04T08:15:53.590Z,1.60
2019-02-04T08:18:24.316Z,1.80
2019-02-04T08:20:55.017Z,2.50
2019-02-04T08:23:26.036Z,2.50
2019-02-04T08:25:56.682Z,2.70
2019-02-04T08:28:27.429Z,2.70
2019-02-04T08:30:59.122Z,2.90
2019-02-04T08:33:29.855Z,3.00
2019-02-04T08:36:00.849Z,2.90
2019-02-04T08:38:31.566Z,2.90
2019-02-04T08:41:02.215Z,2.80
2019-02-04T08:43:32.926Z,3.10
2019-02-04T08:46:03.627Z,3.00
2019-02-04T08:48:34.341Z,3.10
2019-02-04T08:51:05.573Z,3.10
2019-02-04T08:53:36.337Z,3.40
2019-02-04T08:56:07.071Z,3.10
2019-02-04T08:58:37.794Z,2.80
2019-02-04T09:01:08.429Z,2.80
2019-02-04T09:03:39.349Z,2.60
2019-02-04T09:06:10.052Z,2.50
2019-02-04T09:08:40.767Z,2.30
2019-02-04T09:11:11.582Z,2.20
2019-02-04T09:13:42.253Z,2.20
2019-02-04T09:16:12.955Z,2.20
2019-02-04T09:18:45.160Z,2.10
2019-02-04T09:21:15.842Z,2.10
2019-02-04T09:23:46.589Z,2.10
2019-02-04T09:26:17.681Z,2.10
2019-02-04T09:28:48.401Z,2.20
2019-02-04T09:31:19.307Z,2.30
2019-02-04T09:33:50.021Z,2.20
2019-02-04T09:36:20.847Z,2.40
2019-02-04T09:38:51.540Z,2.60
2019-02-04T09:41:23.133Z,2.70
2019-02-04T09:43:53.878Z,2.80
2019-02-04T09:46:24.595Z,3.00
2019-02-04T09:48:55.311Z,3.30
2019-02-04T09:51:26.017Z,3.60
2019-02-04T09:53:56.753Z,4.30
2019-02-04T09:56:27.457Z,4.50
2019-02-04T09:58:58.389Z,5.20
2019-02-04T10:01:29.106Z,5.00
2019-02-04T10:03:59.849Z,5.50
2019-02-04T10:06:30.553Z,5.50
2019-02-04T10:09:01.274Z,5.60
2019-02-04T10:11:33.391Z,5.80
2019-02-04T10:14:04.125Z,5.80
2019-02-04T10:16:34.831Z,6.40
2019-02-04T10:19:05.597Z,6.90
2019-02-04T10:21:36.265Z,6.90
2019-02-04T10:24:07.199Z,7.00
2019-02-04T10:26:37.902Z,7.00
2019-02-04T10:29:08.583Z,6.80
2019-02-04T10:31:39.276Z,6.30
2019-02-04T10:34:10.000Z,6.70
2019-02-04T10:36:41.043Z,6.70
2019-02-04T10:39:11.715Z,7.30
2019-02-04T10:41:42.582Z,8.00
2019-02-04T10:44:13.451Z,8.50
2019-02-04T10:46:45.127Z,7.80
2019-02-04T10:49:16.193Z,8.10
2019-02-04T10:51:46.936Z,7.40
2019-02-04T10:54:17.689Z,8.30
2019-02-04T10:56:48.426Z,7.70
2019-02-04T10:59:19.205Z,7.70
2019-02-04T11:01:49.906Z,8.70
2019-02-04T11:04:20.691Z,8.50
2019-02-04T11:06:51.512Z,8.30
2019-02-04T11:09:22.195Z,9.70
2019-02-04T11:11:52.963Z,8.00
2019-02-04T11:14:23.716Z,7.40
2019-02-04T11:16:54.751Z,7.50
2019-02-04T11:19:25.479Z,7.00
2019-02-04T11:21:56.217Z,6.80
2019-02-04T11:24:27.082Z,7.80
2019-02-04T11:26:57.915Z,7.50
2019-02-04T11:29:29.046Z,7.30
2019-02-04T11:31:59.818Z,7.40
2019-02-04T11:34:30.556Z,7.70
2019-02-04T11:37:01.258Z,7.90
2019-02-04T11:39:32.019Z,8.20
2019-02-04T11:42:03.259Z,8.50
2019-02-04T11:44:34.090Z,7.50
2019-02-04T11:47:04.852Z,8.70
2019-02-04T11:49:35.563Z,8.40
2019-02-04T11:52:06.282Z,9.90
2019-02-04T11:54:37.032Z,9.90
2019-02-04T11:57:07.749Z,9.20
2019-02-04T11:59:38.513Z,8.70
2019-02-04T12:02:09.338Z,9.00
2019-02-04T12:04:41.159Z,9.30
2019-02-04T12:07:11.978Z,9.10
2019-02-04T12:09:42.735Z,9.00
2019-02-04T12:12:13.686Z,9.50
2019-02-04T12:14:44.522Z,9.30
2019-02-04T12:17:15.238Z,8.00
2019-02-04T12:19:45.982Z,7.50
2019-02-04T12:22:16.810Z,6.30
2019-02-04T12:24:47.554Z,5.90
2019-02-04T12:27:18.267Z,7.50
2019-02-04T12:29:49.030Z,7.30
2019-02-04T12:32:19.779Z,7.60
2019-02-04T12:34:51.150Z,8.20
2019-02-04T12:37:21.888Z,7.70
2019-02-04T12:39:52.650Z,7.50
2019-02-04T12:42:23.383Z,6.90
2019-02-04T12:44:54.147Z,7.10
2019-02-04T12:47:25.939Z,6.30
2019-02-04T12:49:56.698Z,6.60
2019-02-04T12:52:27.414Z,6.60
2019-02-04T12:54:58.176Z,5.70
2019-02-04T12:57:28.904Z,6.30
2019-02-04T12:59:59.671Z,7.10
2019-02-04T13:02:30.411Z,6.50
2019-02-04T13:05:01.190Z,6.90
2019-02-04T13:07:31.946Z,5.70
2019-02-04T13:10:02.699Z,6.70
2019-02-04T13:12:34.532Z,5.90
2019-02-04T13:15:06.375Z,6.60
2019-02-04T13:17:37.129Z,6.90
2019-02-04T13:20:09.371Z,7.00
2019-02-04T13:22:40.099Z,7.10
2019-02-04T13:25:12.718Z,7.10
2019-02-04T13:27:43.589Z,6.90
2019-02-04T13:30:16.970Z,7.10
2019-02-04T13:32:47.686Z,6.70
2019-02-04T13:35:18.657Z,6.60
2019-02-04T13:37:50.027Z,7.10
2019-02-04T13:40:23.626Z,7.40
2019-02-04T13:42:54.572Z,6.80
2019-02-04T13:45:25.436Z,7.90
2019-02-04T13:47:56.232Z,7.00
2019-02-04T13:50:27.079Z,7.40
2019-02-04T13:52:58.021Z,7.20
2019-02-04T13:55:32.510Z,8.40
2019-02-04T13:58:03.146Z,8.50
2019-02-04T14:00:34.347Z,8.20
2019-02-04T14:03:06.953Z,6.40
2019-02-04T14:05:38.110Z,7.90
2019-02-04T14:08:08.915Z,6.80
2019-02-04T14:10:41.658Z,7.00
2019-02-04T14:13:12.627Z,6.80
2019-02-04T14:15:43.773Z,7.70
2019-02-04T14:18:14.501Z,7.10
2019-02-04T14:20:45.266Z,6.00
2019-02-04T14:23:16.084Z,6.10
2019-02-04T14:25:46.865Z,5.70
2019-02-04T14:28:17.879Z,5.80
2019-02-04T14:30:48.580Z,6.10
2019-02-04T14:33:19.317Z,6.20
2019-02-04T14:35:50.065Z,6.30
2019-02-04T14:38:20.778Z,6.10
2019-02-04T14:40:51.921Z,5.90
2019-02-04T14:43:35.740Z,5.80
2019-02-04T14:46:33.613Z,5.60
2019-02-04T14:49:44.865Z,5.60
2019-02-04T14:52:59.084Z,5.50
2019-02-04T14:56:00.226Z,5.30
2019-02-04T14:58:43.034Z,5.00
2019-02-04T15:01:53.317Z,5.00
2019-02-04T15:05:20.094Z,5.00
2019-02-04T15:08:34.888Z,5.00
2019-02-04T15:11:18.057Z,4.80
2019-02-04T15:14:14.957Z,4.70
2019-02-04T15:17:13.711Z,4.80
2019-02-04T15:20:20.286Z,4.70
2019-02-04T15:23:17.850Z,4.70
2019-02-04T15:26:24.162Z,4.60
2019-02-04T15:29:54.405Z,4.50
2019-02-04T15:33:09.368Z,4.40
2019-02-04T15:36:12.586Z,4.20
2019-02-04T15:39:12.105Z,4.20
2019-02-04T15:42:31.858Z,4.00
2019-02-04T15:45:10.006Z,4.00
2019-02-04T15:47:51.487Z,3.90
2019-02-04T15:50:43.299Z,3.90
2019-02-04T15:53:14.077Z,3.80
2019-02-04T15:55:44.806Z,3.60
2019-02-04T15:58:15.541Z,3.50
2019-02-04T16:00:46.553Z,3.40
2019-02-04T16:03:17.289Z,3.30
2019-02-04T16:05:47.945Z,3.20
2019-02-04T16:08:18.682Z,3.20
2019-02-04T16:10:49.461Z,3.10
2019-02-04T16:13:20.193Z,3.00
2019-02-04T16:15:50.853Z,2.90
2019-02-04T16:18:21.585Z,2.70
2019-02-04T16:20:52.364Z,2.60
2019-02-04T16:23:23.966Z,2.50
2019-02-04T16:25:54.659Z,2.50
2019-02-04T16:28:25.382Z,2.50
2019-02-04T16:30:56.108Z,2.40
2019-02-04T16:33:26.852Z,2.30
2019-02-04T16:35:57.585Z,2.30
2019-02-04T16:38:28.340Z,2.20
2019-02-04T16:40:59.483Z,2.00
2019-02-04T16:43:30.222Z,1.90
2019-02-04T16:46:00.939Z,1.70
2019-02-04T16:48:31.689Z,1.60
2019-02-04T16:51:11.272Z,1.50
2019-02-04T16:53:34.741Z,1.40
2019-02-04T16:56:05.478Z,1.30
2019-02-04T16:58:36.202Z,1.30
2019-02-04T17:01:06.924Z,1.20
2019-02-04T17:03:37.690Z,1.10
2019-02-04T17:06:08.405Z,1.00
2019-02-04T17:08:39.159Z,0.90
2019-02-04T17:11:09.897Z,0.90
2019-02-04T17:13:40.782Z,0.90
2019-02-04T17:16:11.531Z,0.90
2019-02-04T17:18:42.299Z,0.90
2019-02-04T17:21:13.382Z,0.80
2019-02-04T17:23:44.188Z,0.80
2019-02-04T17:26:14.942Z,0.70
2019-02-04T17:28:45.868Z,0.60
2019-02-04T17:31:16.658Z,0.50
2019-02-04T17:33:48.058Z,0.40
2019-02-04T17:36:18.783Z,0.30
2019-02-04T17:38:49.690Z,0.30
2019-02-04T17:41:20.614Z,0.30
2019-02-04T17:43:51.361Z,0.40
2019-02-04T17:46:22.097Z,0.40
2019-02-04T17:48:53.219Z,0.40
2019-02-04T17:51:25.005Z,0.40
2019-02-04T17:53:55.717Z,0.40
2019-02-04T17:56:26.890Z,0.40
2019-02-04T17:58:57.625Z,0.40
2019-02-04T18:01:28.386Z,0.20
2019-02-04T18:03:59.315Z,0.20
2019-02-04T18:06:31.664Z,0.10
2019-02-04T18:09:02.453Z,0.00
2019-02-04T18:11:33.788Z,0.00
2019-02-04T18:14:04.888Z,-0.10
2019-02-04T18:16:35.698Z,-0.10
2019-02-04T18:19:06.431Z,-0.20
2019-02-04T18:21:37.207Z,-0.20
2019-02-04T18:24:07.913Z,-0.20
2019-02-04T18:26:38.769Z,-0.20
2019-02-04T18:29:09.501Z,-0.20
2019-02-04T18:31:40.253Z,-0.20
2019-02-04T18:34:10.946Z,-0.30
2019-02-04T18:36:41.682Z,-0.20
2019-02-04T18:39:12.857Z,-0.30
2019-02-04T18:41:43.681Z,-0.40
2019-02-04T18:44:14.417Z,-0.40
2019-02-04T18:46:45.608Z,-0.40
2019-02-04T18:49:16.337Z,-0.50
2019-02-04T18:51:47.109Z,-0.50
2019-02-04T18:54:17.834Z,-0.60
2019-02-04T18:56:48.642Z,-0.50
2019-02-04T18:59:19.371Z,-0.50
2019-02-04T19:01:50.127Z,-0.50
2019-02-04T19:04:20.887Z,-0.50
2019-02-04T19:06:51.649Z,-0.40
2019-02-04T19:09:22.410Z,-0.30
2019-02-04T19:11:55.436Z,-0.30
2019-02-04T19:14:25.597Z,-0.30
2019-02-04T19:16:56.363Z,-0.20
2019-02-04T19:19:27.080Z,-0.20
2019-02-04T19:21:57.894Z,-0.20
2019-02-04T19:24:28.642Z,-0.20
2019-02-04T19:26:59.414Z,-0.30
2019-02-04T19:29:30.471Z,-0.40
2019-02-04T19:32:02.939Z,-0.40
2019-02-04T19:34:33.638Z,-0.50
2019-02-04T19:37:04.447Z,-0.50
2019-02-04T19:39:35.164Z,-0.40
2019-02-04T19:42:06.852Z,-0.40
2019-02-04T19:44:37.589Z,-0.40
2019-02-04T19:47:08.350Z,-0.30
2019-02-04T19:49:39.227Z,-0.30
2019-02-04T19:52:15.641Z,-0.20
2019-02-04T19:54:47.348Z,-0.20
2019-02-04T19:57:18.169Z,-0.30
2019-02-04T19:59:49.045Z,-0.30
2019-02-04T20:02:19.785Z,-0.30
2019-02-04T20:04:51.401Z,-0.40
2019-02-04T20:07:22.457Z,-0.40
2019-02-04T20:09:53.189Z,-0.40
2019-02-04T20:12:26.837Z,-0.40
2019-02-04T20:14:57.762Z,-0.50
2019-02-04T20:17:28.502Z,-0.40
2019-02-04T20:19:59.427Z,-0.50
2019-02-04T20:22:30.085Z,-0.50
2019-02-04T20:25:00.821Z,-0.50
2019-02-04T20:27:31.513Z,-0.50
2019-02-04T20:30:02.250Z,-0.60
2019-02-04T20:32:33.967Z,-0.60
2019-02-04T20:35:05.675Z,-0.60
2019-02-04T20:37:37.397Z,-0.50
2019-02-04T20:40:09.114Z,-0.40
2019-02-04T20:42:40.243Z,-0.40
2019-02-04T20:45:12.175Z,-0.40
2019-02-04T20:47:43.228Z,-0.40
2019-02-04T20:50:17.393Z,-0.50
2019-02-04T20:52:48.579Z,-0.50
2019-02-04T20:55:19.766Z,-0.60
2019-02-04T20:57:50.901Z,-0.80
2019-02-04T21:00:25.258Z,-0.80
2019-02-04T21:02:56.233Z,-0.90
2019-02-04T21:05:27.161Z,-1.00
2019-02-04T21:07:58.017Z,-1.10
2019-02-04T21:10:29.372Z,-1.10
2019-02-04T21:13:00.845Z,-1.10
2019-02-04T21:15:31.746Z,-1.10
2019-02-04T21:18:03.101Z,-1.10
2019-02-04T21:20:34.323Z,-1.00
2019-02-04T21:23:05.413Z,-1.00
2019-02-04T21:25:36.538Z,-1.00
2019-02-04T21:28:07.527Z,-1.00
2019-02-04T21:30:40.541Z,-0.90
2019-02-04T21:33:11.236Z,-0.90
2019-02-04T21:35:41.907Z,-1.00
2019-02-04T21:38:13.048Z,-1.10
2019-02-04T21:40:43.769Z,-1.10
2019-02-04T21:43:14.577Z,-1.20
2019-02-04T21:45:46.397Z,-1.20
2019-02-04T21:48:17.195Z,-1.20
2019-02-04T21:50:47.919Z,-1.20
2019-02-04T21:53:18.691Z,-1.10
2019-02-04T21:55:49.449Z,-1.00
2019-02-04T21:58:20.193Z,-1.00
2019-02-04T22:00:50.966Z,-1.00
2019-02-04T22:03:21.729Z,-1.00
2019-02-04T22:05:52.405Z,-1.00
2019-02-04T22:08:23.128Z,-1.00
2019-02-04T22:10:54.280Z,-1.00
2019-02-04T22:13:25.033Z,-1.00
2019-02-04T22:15:57.049Z,-1.00
2019-02-04T22:18:27.778Z,-1.00
2019-02-04T22:20:58.526Z,-0.90
2019-02-04T22:23:29.253Z,-0.90
2019-02-04T22:26:00.329Z,-0.90
2019-02-04T22:28:31.061Z,-0.90
2019-02-04T22:31:02.108Z,-1.00
2019-02-04T22:33:32.849Z,-0.90
2019-02-04T22:36:03.589Z,-1.00
2019-02-04T22:38:34.248Z,-0.90
2019-02-04T22:41:05.514Z,-0.90
2019-02-04T22:43:36.266Z,-0.90
2019-02-04T22:46:07.441Z,-1.00
2019-02-04T22:48:39.257Z,-1.00
2019-02-04T22:51:10.010Z,-1.00
2019-02-04T22:53:40.744Z,-0.90
2019-02-04T22:56:11.505Z,-0.90
2019-02-04T22:58:42.524Z,-0.90
2019-02-04T23:01:29.581Z,-0.90
2019-02-04T23:04:00.306Z,-1.00
2019-02-04T23:06:31.050Z,-0.90
2019-02-04T23:09:02.077Z,-0.90
2019-02-04T23:11:34.620Z,-0.90
2019-02-04T23:14:06.692Z,-1.00
2019-02-04T23:16:37.543Z,-0.90
2019-02-04T23:19:08.681Z,-0.90
2019-02-04T23:21:39.752Z,-1.00
2019-02-04T23:24:10.497Z,-1.00
2019-02-04T23:26:41.233Z,-1.10
2019-02-04T23:29:11.978Z,-1.10
2019-02-04T23:31:42.648Z,-1.20
2019-02-04T23:34:13.711Z,-1.20
2019-02-04T23:36:44.454Z,-1.20
2019-02-04T23:39:15.174Z,-1.20
2019-02-04T23:41:45.910Z,-1.20
2019-02-04T23:44:16.665Z,-1.20
2019-02-04T23:46:47.425Z,-1.20
2019-02-04T23:49:18.076Z,-1.10
2019-02-04T23:51:49.713Z,-1.10
2019-02-04T23:54:20.444Z,-1.10
2019-02-04T23:56:51.217Z,-1.10
2019-02-04T23:59:21.917Z,-1.10
